LNG Imo — ZCDT6 — position and weather

sailwx.info

Track history (hours):
 
Tides and Currents Weather Stations Pressure Air Temp Water Temp Dewpoint Dewpoint Depression Visibility Wind Speed Wind Dir Waves Ship Positions

LNG Imo

Last reported at 2018-Feb-17 04:15 UTC. Time now 2018-Feb-18 20:02 UTC.
Position N 22°12' E 120°13'.

Length 288 m; draft 11.4 m.

Type: Ship (hazmat cat D). MMSI: 310565000.

Date/timePositionNaut miles runAvg speedWind from/ knotsBaromVisibWave heightAir tempDewpointWater temp
2018-Feb-17 04:15N 22°12' E 120°13'619.1
2018-Feb-17 03:57N 22°18' E 120°12'818.7
2018-Feb-17 03:30N 22°26' E 120°11'917.7
2018-Feb-17 03:01N 22°35' E 120°09'611.7
2018-Feb-17 02:30N 22°40' E 120°12'0 0.9
2018-Feb-17 02:00N 22°40' E 120°12'2 4.1
2018-Feb-17 01:30N 22°39' E 120°10'611.4
2018-Feb-17 01:00N 22°33' E 120°08'815.8
2018-Feb-17 00:30N 22°26' E 120°11'917.1
2018-Feb-17 00:00N 22°18' E 120°13'2716.8
2018-Feb-16 22:24N 21°51' E 120°21'  
2018-Feb-12 12:01N 01°14' E 103°58'0 1.5
2018-Feb-12 11:59N 01°14' E 103°58'3 5.8
2018-Feb-12 11:29N 01°13' E 103°55'612.6
2018-Feb-12 11:00N 01°10' E 103°50'613.1
2018-Feb-12 10:31N 01°07' E 103°45'714.1
2018-Feb-12 10:01N 01°03' E 103°39'814.8
2018-Feb-12 09:30N 01°06' E 103°32'815.6
2018-Feb-12 09:00N 01°11' E 103°26'815.7
2018-Feb-12 08:30N 01°16' E 103°20'  
Track history (hours):
 
Tides and Currents Weather Stations Pressure Air Temp Water Temp Dewpoint Dewpoint Depression Visibility Wind Speed Wind Dir Waves Ship Positions

LNG Imo

Last reported at 2018-Feb-17 04:15 UTC. Time now 2018-Feb-18 20:02 UTC.
Position N 22°12' E 120°13'.

Length 288 m; draft 11.4 m.

Type: Ship (hazmat cat D). MMSI: 310565000.

Date/timePositionNaut miles runAvg speedWind from/ knotsBaromVisibWave heightAir tempDewpointWater temp
2018-Feb-17 04:15N 22°12' E 120°13'619.1
2018-Feb-17 03:57N 22°18' E 120°12'818.7
2018-Feb-17 03:30N 22°26' E 120°11'917.7
2018-Feb-17 03:01N 22°35' E 120°09'611.7
2018-Feb-17 02:30N 22°40' E 120°12'0 0.9
2018-Feb-17 02:00N 22°40' E 120°12'2 4.1
2018-Feb-17 01:30N 22°39' E 120°10'611.4
2018-Feb-17 01:00N 22°33' E 120°08'815.8
2018-Feb-17 00:30N 22°26' E 120°11'917.1
2018-Feb-17 00:00N 22°18' E 120°13'2716.8
2018-Feb-16 22:24N 21°51' E 120°21'  
2018-Feb-12 12:01N 01°14' E 103°58'0 1.5
2018-Feb-12 11:59N 01°14' E 103°58'3 5.8
2018-Feb-12 11:29N 01°13' E 103°55'612.6
2018-Feb-12 11:00N 01°10' E 103°50'613.1
2018-Feb-12 10:31N 01°07' E 103°45'714.1
2018-Feb-12 10:01N 01°03' E 103°39'814.8
2018-Feb-12 09:30N 01°06' E 103°32'815.6
2018-Feb-12 09:00N 01°11' E 103°26'815.7
2018-Feb-12 08:30N 01°16' E 103°20'  

Dump ship's entire track history